sensor_id;sensor_type;location;lat;lon;timestamp;temperature;humidity
3713;DHT22;1872;51.406;6.856;2024-01-30T00:01:26;8.70;99.90
3713;DHT22;1872;51.406;6.856;2024-01-30T00:03:52;8.70;99.90
3713;DHT22;1872;51.406;6.856;2024-01-30T00:06:19;8.70;99.90
3713;DHT22;1872;51.406;6.856;2024-01-30T00:08:46;8.70;99.90
3713;DHT22;1872;51.406;6.856;2024-01-30T00:11:14;8.70;99.90
3713;DHT22;1872;51.406;6.856;2024-01-30T00:13:40;8.70;99.90
3713;DHT22;1872;51.406;6.856;2024-01-30T00:16:06;8.70;99.90
3713;DHT22;1872;51.406;6.856;2024-01-30T00:18:32;8.70;99.90
3713;DHT22;1872;51.406;6.856;2024-01-30T00:20:58;8.60;99.90
3713;DHT22;1872;51.406;6.856;2024-01-30T00:23:24;8.60;99.90
3713;DHT22;1872;51.406;6.856;2024-01-30T00:25:50;8.60;99.90
3713;DHT22;1872;51.406;6.856;2024-01-30T00:28:16;8.60;99.90
3713;DHT22;1872;51.406;6.856;2024-01-30T00:30:42;8.60;99.90
3713;DHT22;1872;51.406;6.856;2024-01-30T00:33:08;8.60;99.90
3713;DHT22;1872;51.406;6.856;2024-01-30T00:35:34;8.70;99.90
3713;DHT22;1872;51.406;6.856;2024-01-30T00:38:00;8.60;99.90
3713;DHT22;1872;51.406;6.856;2024-01-30T00:40:26;8.70;99.90
3713;DHT22;1872;51.406;6.856;2024-01-30T00:42:51;8.70;99.90
3713;DHT22;1872;51.406;6.856;2024-01-30T00:45:17;8.70;99.90
3713;DHT22;1872;51.406;6.856;2024-01-30T00:47:44;8.70;99.90
3713;DHT22;1872;51.406;6.856;2024-01-30T00:50:10;8.70;99.90
3713;DHT22;1872;51.406;6.856;2024-01-30T00:52:37;8.70;99.90
3713;DHT22;1872;51.406;6.856;2024-01-30T00:55:05;8.70;99.90
3713;DHT22;1872;51.406;6.856;2024-01-30T00:57:30;8.70;99.90
3713;DHT22;1872;51.406;6.856;2024-01-30T00:59:57;8.70;99.90
3713;DHT22;1872;51.406;6.856;2024-01-30T01:02:22;8.70;99.90
3713;DHT22;1872;51.406;6.856;2024-01-30T01:04:48;8.70;99.90
3713;DHT22;1872;51.406;6.856;2024-01-30T01:07:14;8.70;99.90
3713;DHT22;1872;51.406;6.856;2024-01-30T01:09:39;8.70;99.90
3713;DHT22;1872;51.406;6.856;2024-01-30T01:12:06;8.70;99.90
3713;DHT22;1872;51.406;6.856;2024-01-30T01:14:31;8.70;99.90
3713;DHT22;1872;51.406;6.856;2024-01-30T01:16:57;8.70;99.90
3713;DHT22;1872;51.406;6.856;2024-01-30T01:19:23;8.70;99.90
3713;DHT22;1872;51.406;6.856;2024-01-30T01:21:48;8.70;99.90
3713;DHT22;1872;51.406;6.856;2024-01-30T01:24:14;8.70;99.90
3713;DHT22;1872;51.406;6.856;2024-01-30T01:26:40;8.70;99.90
3713;DHT22;1872;51.406;6.856;2024-01-30T01:29:06;8.60;99.90
3713;DHT22;1872;51.406;6.856;2024-01-30T01:31:41;8.60;99.90
3713;DHT22;1872;51.406;6.856;2024-01-30T01:34:11;8.60;99.90
3713;DHT22;1872;51.406;6.856;2024-01-30T01:36:37;8.50;99.90
3713;DHT22;1872;51.406;6.856;2024-01-30T01:39:03;8.50;99.90
3713;DHT22;1872;51.406;6.856;2024-01-30T01:41:32;8.50;99.90
3713;DHT22;1872;51.406;6.856;2024-01-30T01:43:59;8.50;99.90
3713;DHT22;1872;51.406;6.856;2024-01-30T01:46:30;8.50;99.90
3713;DHT22;1872;51.406;6.856;2024-01-30T01:48:58;8.50;99.90
3713;DHT22;1872;51.406;6.856;2024-01-30T01:51:27;8.50;99.90
3713;DHT22;1872;51.406;6.856;2024-01-30T01:53:53;8.50;99.90
3713;DHT22;1872;51.406;6.856;2024-01-30T01:56:19;8.50;99.90
3713;DHT22;1872;51.406;6.856;2024-01-30T01:58:46;8.50;99.90
3713;DHT22;1872;51.406;6.856;2024-01-30T02:01:13;8.50;99.90
3713;DHT22;1872;51.406;6.856;2024-01-30T02:03:40;8.50;99.90
3713;DHT22;1872;51.406;6.856;2024-01-30T02:06:06;8.50;99.90
3713;DHT22;1872;51.406;6.856;2024-01-30T02:08:32;8.40;99.90
3713;DHT22;1872;51.406;6.856;2024-01-30T02:10:59;8.40;99.90
3713;DHT22;1872;51.406;6.856;2024-01-30T02:13:25;8.40;99.90
3713;DHT22;1872;51.406;6.856;2024-01-30T02:15:54;8.40;99.90
3713;DHT22;1872;51.406;6.856;2024-01-30T02:18:20;8.40;99.90
3713;DHT22;1872;51.406;6.856;2024-01-30T02:20:47;8.40;99.90
3713;DHT22;1872;51.406;6.856;2024-01-30T02:23:15;8.40;99.90
3713;DHT22;1872;51.406;6.856;2024-01-30T02:25:41;8.30;99.90
3713;DHT22;1872;51.406;6.856;2024-01-30T02:28:13;8.30;99.90
3713;DHT22;1872;51.406;6.856;2024-01-30T02:30:45;8.30;99.90
3713;DHT22;1872;51.406;6.856;2024-01-30T02:33:11;8.30;99.90
3713;DHT22;1872;51.406;6.856;2024-01-30T02:35:37;8.30;99.90
3713;DHT22;1872;51.406;6.856;2024-01-30T02:38:03;8.30;99.90
3713;DHT22;1872;51.406;6.856;2024-01-30T02:40:29;8.30;99.90
3713;DHT22;1872;51.406;6.856;2024-01-30T02:42:55;8.30;99.90
3713;DHT22;1872;51.406;6.856;2024-01-30T02:45:21;8.30;99.90
3713;DHT22;1872;51.406;6.856;2024-01-30T02:47:47;8.30;99.90
3713;DHT22;1872;51.406;6.856;2024-01-30T02:50:13;8.20;99.90
3713;DHT22;1872;51.406;6.856;2024-01-30T02:52:40;8.20;99.90
3713;DHT22;1872;51.406;6.856;2024-01-30T02:55:06;8.20;99.90
3713;DHT22;1872;51.406;6.856;2024-01-30T02:57:32;8.20;99.90
3713;DHT22;1872;51.406;6.856;2024-01-30T02:59:58;8.20;99.90
3713;DHT22;1872;51.406;6.856;2024-01-30T03:02:24;8.20;99.90
3713;DHT22;1872;51.406;6.856;2024-01-30T03:04:50;8.20;99.90
3713;DHT22;1872;51.406;6.856;2024-01-30T03:07:16;8.20;99.90
3713;DHT22;1872;51.406;6.856;2024-01-30T03:09:42;8.20;99.90
3713;DHT22;1872;51.406;6.856;2024-01-30T03:12:10;8.30;99.90
3713;DHT22;1872;51.406;6.856;2024-01-30T03:14:37;8.20;99.90
3713;DHT22;1872;51.406;6.856;2024-01-30T03:17:04;8.30;99.90
3713;DHT22;1872;51.406;6.856;2024-01-30T03:19:30;8.20;99.90
3713;DHT22;1872;51.406;6.856;2024-01-30T03:21:55;8.20;99.90
3713;DHT22;1872;51.406;6.856;2024-01-30T03:24:21;8.30;99.90
3713;DHT22;1872;51.406;6.856;2024-01-30T03:26:47;8.30;99.90
3713;DHT22;1872;51.406;6.856;2024-01-30T03:29:12;8.30;99.90
3713;DHT22;1872;51.406;6.856;2024-01-30T03:31:40;8.20;99.90
3713;DHT22;1872;51.406;6.856;2024-01-30T03:34:05;8.30;99.90
3713;DHT22;1872;51.406;6.856;2024-01-30T03:36:31;8.20;99.90
3713;DHT22;1872;51.406;6.856;2024-01-30T03:38:59;8.30;99.90
3713;DHT22;1872;51.406;6.856;2024-01-30T03:41:24;8.20;99.90
3713;DHT22;1872;51.406;6.856;2024-01-30T03:43:50;8.30;99.90
3713;DHT22;1872;51.406;6.856;2024-01-30T03:46:16;8.30;99.90
3713;DHT22;1872;51.406;6.856;2024-01-30T03:48:42;8.40;99.90
3713;DHT22;1872;51.406;6.856;2024-01-30T03:51:07;8.30;99.90
3713;DHT22;1872;51.406;6.856;2024-01-30T03:53:33;8.30;99.90
3713;DHT22;1872;51.406;6.856;2024-01-30T03:55:59;8.30;99.90
3713;DHT22;1872;51.406;6.856;2024-01-30T03:58:25;8.30;99.90
3713;DHT22;1872;51.406;6.856;2024-01-30T04:00:51;8.30;99.90
3713;DHT22;1872;51.406;6.856;2024-01-30T04:03:17;8.30;99.90
3713;DHT22;1872;51.406;6.856;2024-01-30T04:05:44;8.20;99.90
3713;DHT22;1872;51.406;6.856;2024-01-30T04:08:10;8.30;99.90
3713;DHT22;1872;51.406;6.856;2024-01-30T04:10:36;8.20;99.90
3713;DHT22;1872;51.406;6.856;2024-01-30T04:13:02;8.20;99.90
3713;DHT22;1872;51.406;6.856;2024-01-30T04:15:28;8.20;99.90
3713;DHT22;1872;51.406;6.856;2024-01-30T04:17:57;8.20;99.90
3713;DHT22;1872;51.406;6.856;2024-01-30T04:20:24;8.20;99.90
3713;DHT22;1872;51.406;6.856;2024-01-30T04:22:50;8.20;99.90
3713;DHT22;1872;51.406;6.856;2024-01-30T04:25:16;8.20;99.90
3713;DHT22;1872;51.406;6.856;2024-01-30T04:27:42;8.20;99.90
3713;DHT22;1872;51.406;6.856;2024-01-30T04:30:08;8.20;99.90
3713;DHT22;1872;51.406;6.856;2024-01-30T04:32:35;8.20;99.90
3713;DHT22;1872;51.406;6.856;2024-01-30T04:35:02;8.20;99.90
3713;DHT22;1872;51.406;6.856;2024-01-30T04:37:28;8.20;99.90
3713;DHT22;1872;51.406;6.856;2024-01-30T04:39:54;8.20;99.90
3713;DHT22;1872;51.406;6.856;2024-01-30T04:42:19;8.20;99.90
3713;DHT22;1872;51.406;6.856;2024-01-30T04:44:45;8.10;99.90
3713;DHT22;1872;51.406;6.856;2024-01-30T04:47:11;8.20;99.90
3713;DHT22;1872;51.406;6.856;2024-01-30T04:49:40;8.20;99.90
3713;DHT22;1872;51.406;6.856;2024-01-30T04:52:07;8.20;99.90
3713;DHT22;1872;51.406;6.856;2024-01-30T04:54:33;8.20;99.90
3713;DHT22;1872;51.406;6.856;2024-01-30T04:56:58;8.20;99.90
3713;DHT22;1872;51.406;6.856;2024-01-30T04:59:24;8.20;99.90
3713;DHT22;1872;51.406;6.856;2024-01-30T05:01:50;8.20;99.90
3713;DHT22;1872;51.406;6.856;2024-01-30T05:04:16;8.20;99.90
3713;DHT22;1872;51.406;6.856;2024-01-30T05:06:41;8.20;99.90
3713;DHT22;1872;51.406;6.856;2024-01-30T05:09:07;8.20;99.90
3713;DHT22;1872;51.406;6.856;2024-01-30T05:11:40;8.20;99.90
3713;DHT22;1872;51.406;6.856;2024-01-30T05:14:07;8.20;99.90
3713;DHT22;1872;51.406;6.856;2024-01-30T05:16:33;8.30;99.90
3713;DHT22;1872;51.406;6.856;2024-01-30T05:18:59;8.30;99.90
3713;DHT22;1872;51.406;6.856;2024-01-30T05:21:25;8.30;99.90
3713;DHT22;1872;51.406;6.856;2024-01-30T05:23:51;8.30;99.90
3713;DHT22;1872;51.406;6.856;2024-01-30T05:26:17;8.30;99.90
3713;DHT22;1872;51.406;6.856;2024-01-30T05:28:43;8.30;99.90
3713;DHT22;1872;51.406;6.856;2024-01-30T05:31:12;8.30;99.90
3713;DHT22;1872;51.406;6.856;2024-01-30T05:33:38;8.30;99.90
3713;DHT22;1872;51.406;6.856;2024-01-30T05:36:04;8.30;99.90
3713;DHT22;1872;51.406;6.856;2024-01-30T05:38:30;8.30;99.90
3713;DHT22;1872;51.406;6.856;2024-01-30T05:40:59;8.30;99.90
3713;DHT22;1872;51.406;6.856;2024-01-30T05:43:24;8.20;99.90
3713;DHT22;1872;51.406;6.856;2024-01-30T05:45:51;8.30;99.90
3713;DHT22;1872;51.406;6.856;2024-01-30T05:48:17;8.30;99.90
3713;DHT22;1872;51.406;6.856;2024-01-30T05:50:43;8.30;99.90
3713;DHT22;1872;51.406;6.856;2024-01-30T05:53:08;8.30;99.90
3713;DHT22;1872;51.406;6.856;2024-01-30T05:55:34;8.30;99.90
3713;DHT22;1872;51.406;6.856;2024-01-30T05:58:00;8.30;99.90
3713;DHT22;1872;51.406;6.856;2024-01-30T06:00:25;8.30;99.90
3713;DHT22;1872;51.406;6.856;2024-01-30T06:02:51;8.30;99.90
3713;DHT22;1872;51.406;6.856;2024-01-30T06:05:17;8.30;99.90
3713;DHT22;1872;51.406;6.856;2024-01-30T06:07:42;8.30;99.90
3713;DHT22;1872;51.406;6.856;2024-01-30T06:10:08;8.30;99.90
3713;DHT22;1872;51.406;6.856;2024-01-30T06:12:35;8.30;99.90
3713;DHT22;1872;51.406;6.856;2024-01-30T06:15:01;8.30;99.90
3713;DHT22;1872;51.406;6.856;2024-01-30T06:17:27;8.30;99.90
3713;DHT22;1872;51.406;6.856;2024-01-30T06:19:52;8.30;99.90
3713;DHT22;1872;51.406;6.856;2024-01-30T06:22:18;8.20;99.90
3713;DHT22;1872;51.406;6.856;2024-01-30T06:24:44;8.20;99.90
3713;DHT22;1872;51.406;6.856;2024-01-30T06:27:16;8.30;99.90
3713;DHT22;1872;51.406;6.856;2024-01-30T06:29:43;8.30;99.90
3713;DHT22;1872;51.406;6.856;2024-01-30T06:32:08;8.30;99.90
3713;DHT22;1872;51.406;6.856;2024-01-30T06:34:34;8.30;99.90
3713;DHT22;1872;51.406;6.856;2024-01-30T06:37:00;8.40;99.90
3713;DHT22;1872;51.406;6.856;2024-01-30T06:39:26;8.40;99.90
3713;DHT22;1872;51.406;6.856;2024-01-30T06:41:52;8.40;99.90
3713;DHT22;1872;51.406;6.856;2024-01-30T06:44:18;8.50;99.90
3713;DHT22;1872;51.406;6.856;2024-01-30T06:46:43;8.50;99.90
3713;DHT22;1872;51.406;6.856;2024-01-30T06:49:09;8.50;99.90
3713;DHT22;1872;51.406;6.856;2024-01-30T06:51:35;8.60;99.90
3713;DHT22;1872;51.406;6.856;2024-01-30T06:54:00;8.60;99.90
3713;DHT22;1872;51.406;6.856;2024-01-30T06:56:26;8.60;99.90
3713;DHT22;1872;51.406;6.856;2024-01-30T06:58:52;8.60;99.90
3713;DHT22;1872;51.406;6.856;2024-01-30T07:01:18;8.70;99.90
3713;DHT22;1872;51.406;6.856;2024-01-30T07:03:44;8.60;99.90
3713;DHT22;1872;51.406;6.856;2024-01-30T07:06:09;8.70;99.90
3713;DHT22;1872;51.406;6.856;2024-01-30T07:08:38;8.60;99.90
3713;DHT22;1872;51.406;6.856;2024-01-30T07:11:05;8.70;99.90
3713;DHT22;1872;51.406;6.856;2024-01-30T07:13:31;8.70;99.90
3713;DHT22;1872;51.406;6.856;2024-01-30T07:15:57;8.70;99.90
3713;DHT22;1872;51.406;6.856;2024-01-30T07:18:23;8.70;99.90
3713;DHT22;1872;51.406;6.856;2024-01-30T07:20:49;8.70;99.90
3713;DHT22;1872;51.406;6.856;2024-01-30T07:23:15;8.70;99.90
3713;DHT22;1872;51.406;6.856;2024-01-30T07:25:44;8.70;99.90
3713;DHT22;1872;51.406;6.856;2024-01-30T07:28:10;8.70;99.90
3713;DHT22;1872;51.406;6.856;2024-01-30T07:30:37;8.80;99.90
3713;DHT22;1872;51.406;6.856;2024-01-30T07:33:03;8.80;99.90
3713;DHT22;1872;51.406;6.856;2024-01-30T07:35:29;8.80;99.90
3713;DHT22;1872;51.406;6.856;2024-01-30T07:37:54;8.80;99.90
3713;DHT22;1872;51.406;6.856;2024-01-30T07:40:20;8.80;99.90
3713;DHT22;1872;51.406;6.856;2024-01-30T07:42:47;8.80;99.90
3713;DHT22;1872;51.406;6.856;2024-01-30T07:45:13;8.80;99.90
3713;DHT22;1872;51.406;6.856;2024-01-30T07:47:39;8.90;99.90
3713;DHT22;1872;51.406;6.856;2024-01-30T07:50:05;8.90;99.90
3713;DHT22;1872;51.406;6.856;2024-01-30T07:52:31;8.90;99.90
3713;DHT22;1872;51.406;6.856;2024-01-30T07:54:56;8.90;99.90
3713;DHT22;1872;51.406;6.856;2024-01-30T07:57:22;9.00;99.90
3713;DHT22;1872;51.406;6.856;2024-01-30T07:59:48;9.00;99.90
3713;DHT22;1872;51.406;6.856;2024-01-30T08:02:13;9.00;99.90
3713;DHT22;1872;51.406;6.856;2024-01-30T08:04:39;9.00;99.90
3713;DHT22;1872;51.406;6.856;2024-01-30T08:07:05;9.10;99.90
3713;DHT22;1872;51.406;6.856;2024-01-30T08:09:31;9.10;99.90
3713;DHT22;1872;51.406;6.856;2024-01-30T08:11:56;9.10;99.90
3713;DHT22;1872;51.406;6.856;2024-01-30T08:14:22;9.10;99.90
3713;DHT22;1872;51.406;6.856;2024-01-30T08:16:48;9.10;99.90
3713;DHT22;1872;51.406;6.856;2024-01-30T08:19:14;9.10;99.90
3713;DHT22;1872;51.406;6.856;2024-01-30T08:21:40;9.20;99.90
3713;DHT22;1872;51.406;6.856;2024-01-30T08:24:06;9.20;99.90
3713;DHT22;1872;51.406;6.856;2024-01-30T08:26:33;9.20;99.90
3713;DHT22;1872;51.406;6.856;2024-01-30T08:29:00;9.20;99.90
3713;DHT22;1872;51.406;6.856;2024-01-30T08:31:26;9.20;99.90
3713;DHT22;1872;51.406;6.856;2024-01-30T08:33:53;9.30;99.90
3713;DHT22;1872;51.406;6.856;2024-01-30T08:36:19;9.30;99.90
3713;DHT22;1872;51.406;6.856;2024-01-30T08:38:45;9.30;99.90
3713;DHT22;1872;51.406;6.856;2024-01-30T08:41:11;9.30;99.90
3713;DHT22;1872;51.406;6.856;2024-01-30T08:43:37;9.40;99.90
3713;DHT22;1872;51.406;6.856;2024-01-30T08:46:03;9.40;99.90
3713;DHT22;1872;51.406;6.856;2024-01-30T08:48:29;9.40;99.90
3713;DHT22;1872;51.406;6.856;2024-01-30T08:50:55;9.40;99.90
3713;DHT22;1872;51.406;6.856;2024-01-30T08:53:20;9.50;99.90
3713;DHT22;1872;51.406;6.856;2024-01-30T08:55:46;9.50;99.90
3713;DHT22;1872;51.406;6.856;2024-01-30T08:58:12;9.50;99.90
3713;DHT22;1872;51.406;6.856;2024-01-30T09:00:38;9.60;99.90
3713;DHT22;1872;51.406;6.856;2024-01-30T09:03:03;9.60;99.90
3713;DHT22;1872;51.406;6.856;2024-01-30T09:05:29;9.60;99.90
3713;DHT22;1872;51.406;6.856;2024-01-30T09:07:55;9.70;99.90
3713;DHT22;1872;51.406;6.856;2024-01-30T09:10:21;9.70;99.90
3713;DHT22;1872;51.406;6.856;2024-01-30T09:12:47;9.70;99.90
3713;DHT22;1872;51.406;6.856;2024-01-30T09:15:13;9.70;99.90
3713;DHT22;1872;51.406;6.856;2024-01-30T09:17:39;9.70;99.90
3713;DHT22;1872;51.406;6.856;2024-01-30T09:20:05;9.70;99.90
3713;DHT22;1872;51.406;6.856;2024-01-30T09:22:31;9.70;99.90
3713;DHT22;1872;51.406;6.856;2024-01-30T09:24:57;9.80;99.90
3713;DHT22;1872;51.406;6.856;2024-01-30T09:27:23;9.80;99.90
3713;DHT22;1872;51.406;6.856;2024-01-30T09:29:49;9.90;99.90
3713;DHT22;1872;51.406;6.856;2024-01-30T09:32:15;9.90;99.90
3713;DHT22;1872;51.406;6.856;2024-01-30T09:34:40;10.00;99.90
3713;DHT22;1872;51.406;6.856;2024-01-30T09:37:07;10.00;99.90
3713;DHT22;1872;51.406;6.856;2024-01-30T09:39:33;10.10;99.90
3713;DHT22;1872;51.406;6.856;2024-01-30T09:42:20;10.10;99.90
3713;DHT22;1872;51.406;6.856;2024-01-30T09:44:51;10.20;99.90
3713;DHT22;1872;51.406;6.856;2024-01-30T09:47:18;10.30;99.90
3713;DHT22;1872;51.406;6.856;2024-01-30T09:49:44;10.40;99.90
3713;DHT22;1872;51.406;6.856;2024-01-30T09:52:11;10.40;99.90
3713;DHT22;1872;51.406;6.856;2024-01-30T09:54:38;10.50;99.90
3713;DHT22;1872;51.406;6.856;2024-01-30T09:57:04;10.60;99.90
3713;DHT22;1872;51.406;6.856;2024-01-30T09:59:31;10.60;99.90
3713;DHT22;1872;51.406;6.856;2024-01-30T10:01:57;10.70;99.90
3713;DHT22;1872;51.406;6.856;2024-01-30T10:04:23;10.70;99.90
3713;DHT22;1872;51.406;6.856;2024-01-30T10:06:50;10.70;99.90
3713;DHT22;1872;51.406;6.856;2024-01-30T10:09:16;10.80;99.90
3713;DHT22;1872;51.406;6.856;2024-01-30T10:11:42;10.90;99.90
3713;DHT22;1872;51.406;6.856;2024-01-30T10:14:07;11.00;99.90
3713;DHT22;1872;51.406;6.856;2024-01-30T10:16:34;11.00;99.90
3713;DHT22;1872;51.406;6.856;2024-01-30T10:19:00;11.10;99.90
3713;DHT22;1872;51.406;6.856;2024-01-30T10:21:26;11.10;99.90
3713;DHT22;1872;51.406;6.856;2024-01-30T10:23:52;11.20;99.90
3713;DHT22;1872;51.406;6.856;2024-01-30T10:26:18;11.20;99.90
3713;DHT22;1872;51.406;6.856;2024-01-30T10:28:43;11.20;99.90
3713;DHT22;1872;51.406;6.856;2024-01-30T10:31:09;11.20;99.90
3713;DHT22;1872;51.406;6.856;2024-01-30T10:33:35;11.30;99.90
3713;DHT22;1872;51.406;6.856;2024-01-30T10:36:04;11.30;99.90
3713;DHT22;1872;51.406;6.856;2024-01-30T10:38:31;11.40;99.90
3713;DHT22;1872;51.406;6.856;2024-01-30T10:40:58;11.50;99.90
3713;DHT22;1872;51.406;6.856;2024-01-30T10:43:32;11.50;99.90
3713;DHT22;1872;51.406;6.856;2024-01-30T10:46:21;11.50;99.90
3713;DHT22;1872;51.406;6.856;2024-01-30T10:48:57;11.50;99.90
3713;DHT22;1872;51.406;6.856;2024-01-30T10:51:29;11.50;99.90
3713;DHT22;1872;51.406;6.856;2024-01-30T10:53:56;11.50;99.90
3713;DHT22;1872;51.406;6.856;2024-01-30T10:56:23;11.50;99.90
3713;DHT22;1872;51.406;6.856;2024-01-30T10:58:53;11.50;99.90
3713;DHT22;1872;51.406;6.856;2024-01-30T11:01:20;11.60;99.90
3713;DHT22;1872;51.406;6.856;2024-01-30T11:03:51;11.60;99.90
3713;DHT22;1872;51.406;6.856;2024-01-30T11:06:17;11.60;99.90
3713;DHT22;1872;51.406;6.856;2024-01-30T11:08:46;11.60;99.90
3713;DHT22;1872;51.406;6.856;2024-01-30T11:11:12;11.60;99.90
3713;DHT22;1872;51.406;6.856;2024-01-30T11:13:38;11.70;99.90
3713;DHT22;1872;51.406;6.856;2024-01-30T11:16:05;11.70;99.90
3713;DHT22;1872;51.406;6.856;2024-01-30T11:18:31;11.70;99.90
3713;DHT22;1872;51.406;6.856;2024-01-30T11:21:01;11.80;99.90
3713;DHT22;1872;51.406;6.856;2024-01-30T11:23:28;11.80;99.90
3713;DHT22;1872;51.406;6.856;2024-01-30T11:25:54;11.90;99.90
3713;DHT22;1872;51.406;6.856;2024-01-30T11:28:23;11.90;99.90
3713;DHT22;1872;51.406;6.856;2024-01-30T11:30:49;12.00;99.90
3713;DHT22;1872;51.406;6.856;2024-01-30T11:33:30;12.00;99.90
3713;DHT22;1872;51.406;6.856;2024-01-30T11:35:58;12.00;99.90
3713;DHT22;1872;51.406;6.856;2024-01-30T11:38:26;12.00;99.90
3713;DHT22;1872;51.406;6.856;2024-01-30T11:40:54;12.00;99.90
3713;DHT22;1872;51.406;6.856;2024-01-30T11:43:21;12.00;99.90
3713;DHT22;1872;51.406;6.856;2024-01-30T11:45:47;12.00;99.90
3713;DHT22;1872;51.406;6.856;2024-01-30T11:48:13;12.00;99.90
3713;DHT22;1872;51.406;6.856;2024-01-30T11:50:40;12.00;99.90
3713;DHT22;1872;51.406;6.856;2024-01-30T11:53:10;11.90;99.90
3713;DHT22;1872;51.406;6.856;2024-01-30T11:55:35;11.90;99.90
3713;DHT22;1872;51.406;6.856;2024-01-30T11:58:04;11.90;99.90
3713;DHT22;1872;51.406;6.856;2024-01-30T12:00:30;11.90;99.90
3713;DHT22;1872;51.406;6.856;2024-01-30T12:02:59;11.80;99.90
3713;DHT22;1872;51.406;6.856;2024-01-30T12:05:26;11.80;99.90
3713;DHT22;1872;51.406;6.856;2024-01-30T12:07:52;11.80;99.90
3713;DHT22;1872;51.406;6.856;2024-01-30T12:10:18;11.80;99.90
3713;DHT22;1872;51.406;6.856;2024-01-30T12:12:49;11.80;99.90
3713;DHT22;1872;51.406;6.856;2024-01-30T12:15:15;11.80;99.90
3713;DHT22;1872;51.406;6.856;2024-01-30T12:17:42;11.80;99.90
3713;DHT22;1872;51.406;6.856;2024-01-30T12:20:12;11.80;99.90
3713;DHT22;1872;51.406;6.856;2024-01-30T12:22:46;11.80;99.90
3713;DHT22;1872;51.406;6.856;2024-01-30T12:25:20;11.90;99.90
3713;DHT22;1872;51.406;6.856;2024-01-30T12:27:49;11.90;99.90
3713;DHT22;1872;51.406;6.856;2024-01-30T12:30:18;11.90;99.90
3713;DHT22;1872;51.406;6.856;2024-01-30T12:32:46;11.90;99.90
3713;DHT22;1872;51.406;6.856;2024-01-30T12:35:19;11.90;99.90
3713;DHT22;1872;51.406;6.856;2024-01-30T12:37:45;11.90;99.90
3713;DHT22;1872;51.406;6.856;2024-01-30T12:40:13;11.90;99.90
3713;DHT22;1872;51.406;6.856;2024-01-30T12:42:43;11.90;99.90
3713;DHT22;1872;51.406;6.856;2024-01-30T12:45:11;11.90;99.90
3713;DHT22;1872;51.406;6.856;2024-01-30T12:47:37;11.90;99.90
3713;DHT22;1872;51.406;6.856;2024-01-30T12:50:03;11.90;99.90
3713;DHT22;1872;51.406;6.856;2024-01-30T12:52:29;11.90;99.90
3713;DHT22;1872;51.406;6.856;2024-01-30T12:54:55;11.90;99.90
3713;DHT22;1872;51.406;6.856;2024-01-30T12:57:20;11.90;99.90
3713;DHT22;1872;51.406;6.856;2024-01-30T12:59:46;11.90;99.90
3713;DHT22;1872;51.406;6.856;2024-01-30T13:02:13;11.90;99.90
3713;DHT22;1872;51.406;6.856;2024-01-30T13:04:39;11.90;99.90
3713;DHT22;1872;51.406;6.856;2024-01-30T13:07:05;11.90;99.90
3713;DHT22;1872;51.406;6.856;2024-01-30T13:09:31;11.90;99.90
3713;DHT22;1872;51.406;6.856;2024-01-30T13:11:59;11.90;99.90
3713;DHT22;1872;51.406;6.856;2024-01-30T13:14:25;11.90;99.90
3713;DHT22;1872;51.406;6.856;2024-01-30T13:16:52;11.90;99.90
3713;DHT22;1872;51.406;6.856;2024-01-30T13:19:17;11.90;99.90
3713;DHT22;1872;51.406;6.856;2024-01-30T13:21:43;11.90;99.90
3713;DHT22;1872;51.406;6.856;2024-01-30T13:24:09;11.90;99.90
3713;DHT22;1872;51.406;6.856;2024-01-30T13:26:35;11.90;99.90
3713;DHT22;1872;51.406;6.856;2024-01-30T13:29:03;11.90;99.90
3713;DHT22;1872;51.406;6.856;2024-01-30T13:31:29;11.90;99.90
3713;DHT22;1872;51.406;6.856;2024-01-30T13:33:55;11.90;99.90
3713;DHT22;1872;51.406;6.856;2024-01-30T13:36:21;11.90;99.90
3713;DHT22;1872;51.406;6.856;2024-01-30T13:38:47;11.90;99.90
3713;DHT22;1872;51.406;6.856;2024-01-30T13:41:13;11.90;99.90
3713;DHT22;1872;51.406;6.856;2024-01-30T13:43:39;11.90;99.90
3713;DHT22;1872;51.406;6.856;2024-01-30T13:46:04;11.90;99.90
3713;DHT22;1872;51.406;6.856;2024-01-30T13:48:31;11.90;99.90
3713;DHT22;1872;51.406;6.856;2024-01-30T13:50:57;11.90;99.90
3713;DHT22;1872;51.406;6.856;2024-01-30T13:53:23;11.90;99.90
3713;DHT22;1872;51.406;6.856;2024-01-30T13:55:48;11.90;99.90
3713;DHT22;1872;51.406;6.856;2024-01-30T13:58:14;12.00;99.90
3713;DHT22;1872;51.406;6.856;2024-01-30T14:00:40;12.00;99.90
3713;DHT22;1872;51.406;6.856;2024-01-30T14:03:06;12.00;99.90
3713;DHT22;1872;51.406;6.856;2024-01-30T14:05:32;12.00;99.90
3713;DHT22;1872;51.406;6.856;2024-01-30T14:07:58;12.00;99.90
3713;DHT22;1872;51.406;6.856;2024-01-30T14:10:24;12.10;99.90
3713;DHT22;1872;51.406;6.856;2024-01-30T14:12:50;12.10;99.90
3713;DHT22;1872;51.406;6.856;2024-01-30T14:15:16;12.10;99.90
3713;DHT22;1872;51.406;6.856;2024-01-30T14:17:45;12.20;99.90
3713;DHT22;1872;51.406;6.856;2024-01-30T14:20:14;12.20;99.90
3713;DHT22;1872;51.406;6.856;2024-01-30T14:22:40;12.20;99.90
3713;DHT22;1872;51.406;6.856;2024-01-30T14:25:06;12.30;99.90
3713;DHT22;1872;51.406;6.856;2024-01-30T14:27:32;12.20;99.90
3713;DHT22;1872;51.406;6.856;2024-01-30T14:29:58;12.30;99.90
3713;DHT22;1872;51.406;6.856;2024-01-30T14:32:24;12.20;99.90
3713;DHT22;1872;51.406;6.856;2024-01-30T14:34:51;12.20;99.90
3713;DHT22;1872;51.406;6.856;2024-01-30T14:37:23;12.20;99.90
3713;DHT22;1872;51.406;6.856;2024-01-30T14:39:49;12.10;99.90
3713;DHT22;1872;51.406;6.856;2024-01-30T14:42:15;12.10;99.90
3713;DHT22;1872;51.406;6.856;2024-01-30T14:44:42;12.10;99.90
3713;DHT22;1872;51.406;6.856;2024-01-30T14:47:08;12.10;99.90
3713;DHT22;1872;51.406;6.856;2024-01-30T14:49:34;12.10;99.90
3713;DHT22;1872;51.406;6.856;2024-01-30T14:52:00;12.00;99.90
3713;DHT22;1872;51.406;6.856;2024-01-30T14:54:26;12.00;99.90
3713;DHT22;1872;51.406;6.856;2024-01-30T14:56:52;12.00;99.90
3713;DHT22;1872;51.406;6.856;2024-01-30T14:59:18;12.00;99.90
3713;DHT22;1872;51.406;6.856;2024-01-30T15:01:44;12.00;99.90
3713;DHT22;1872;51.406;6.856;2024-01-30T15:04:10;12.10;99.90
3713;DHT22;1872;51.406;6.856;2024-01-30T15:06:37;12.00;99.90
3713;DHT22;1872;51.406;6.856;2024-01-30T15:09:02;12.10;99.90
3713;DHT22;1872;51.406;6.856;2024-01-30T15:11:28;12.00;99.90
3713;DHT22;1872;51.406;6.856;2024-01-30T15:13:54;12.00;99.90
3713;DHT22;1872;51.406;6.856;2024-01-30T15:16:20;11.90;99.90
3713;DHT22;1872;51.406;6.856;2024-01-30T15:18:45;11.90;99.90
3713;DHT22;1872;51.406;6.856;2024-01-30T15:21:11;11.90;99.90
3713;DHT22;1872;51.406;6.856;2024-01-30T15:23:37;11.90;99.90
3713;DHT22;1872;51.406;6.856;2024-01-30T15:26:03;11.90;99.90
3713;DHT22;1872;51.406;6.856;2024-01-30T15:28:37;11.80;99.90
3713;DHT22;1872;51.406;6.856;2024-01-30T15:31:04;11.80;99.90
3713;DHT22;1872;51.406;6.856;2024-01-30T15:33:30;11.70;99.90
3713;DHT22;1872;51.406;6.856;2024-01-30T15:35:56;11.70;99.90
3713;DHT22;1872;51.406;6.856;2024-01-30T15:38:22;11.70;99.90
3713;DHT22;1872;51.406;6.856;2024-01-30T15:40:48;11.60;99.90
3713;DHT22;1872;51.406;6.856;2024-01-30T15:43:14;11.60;99.90
3713;DHT22;1872;51.406;6.856;2024-01-30T15:45:39;11.60;99.90
3713;DHT22;1872;51.406;6.856;2024-01-30T15:48:05;11.50;99.90
3713;DHT22;1872;51.406;6.856;2024-01-30T15:50:31;11.50;99.90
3713;DHT22;1872;51.406;6.856;2024-01-30T15:52:57;11.40;99.90
3713;DHT22;1872;51.406;6.856;2024-01-30T15:55:23;11.40;99.90
3713;DHT22;1872;51.406;6.856;2024-01-30T15:57:49;11.30;99.90
3713;DHT22;1872;51.406;6.856;2024-01-30T16:00:15;11.30;99.90
3713;DHT22;1872;51.406;6.856;2024-01-30T16:02:40;11.30;99.90
3713;DHT22;1872;51.406;6.856;2024-01-30T16:05:06;11.30;99.90
3713;DHT22;1872;51.406;6.856;2024-01-30T16:07:34;11.20;99.90